WetterOnline ( https://www.wetteronline.de )

Wetter aktuell Burg

Aktuelles Wetter: Magdeburg (85m)

6-stündlich | Neueste Meldungen
Ortszeit Temperatur Wetter
Sa, 28.01. 19:00 0.0° C bewölkt
Sa, 28.01. 13:00 1.2° C bedeckt
Sa, 28.01. 7:00 0.4° C bedeckt
Sa, 28.01. 1:00 0.4° C bedeckt
Fr, 27.01. 19:00 2.4° C bedeckt
Fr, 27.01. 13:00 3.5° C bewölkt
Fr, 27.01. 7:00 0.9° C bedeckt
Fr, 27.01. 1:00 0.4° C bedeckt
Ortszeit Temperatur Wetter
Sa, 28.01. 23:30 -1.4° C bedeckt
Sa, 28.01. 23:20 -1.4° C bedeckt
Sa, 28.01. 23:10 -1.5° C bewölkt
Sa, 28.01. 23:00 -1.5° C leicht bewölkt
Sa, 28.01. 22:50 -1.5° C leicht bewölkt
Sa, 28.01. 22:40 -1.5° C leicht bewölkt
Sa, 28.01. 22:30 -1.4° C leicht bewölkt
Sa, 28.01. 22:00 -1.2° C fast wolkenlos
Sa, 28.01. 21:30 -1.0° C leicht bewölkt
Sa, 28.01. 21:00 -0.9° C wolkig
Sa, 28.01. 20:30 -0.8° C wolkig
Ortszeit Relative Feuchte Sichtweite
Sa, 28.01. 19:00 75% 45 km
Sa, 28.01. 13:00 67% >70 km
Sa, 28.01. 7:00 74% 55 km
Sa, 28.01. 1:00 83% 60 km
Fr, 27.01. 19:00 85% 55 km
Fr, 27.01. 13:00 94% 14 km
Fr, 27.01. 7:00 99% 4.6 km
Fr, 27.01. 1:00 99% 1.7 km
Ortszeit Relative Feuchte Sichtweite
Sa, 28.01. 23:30 82% 35 km
Sa, 28.01. 23:20 82% -
Sa, 28.01. 23:10 84% -
Sa, 28.01. 23:00 84% 30 km
Sa, 28.01. 22:50 84% -
Sa, 28.01. 22:40 83% -
Sa, 28.01. 22:30 83% 30 km
Sa, 28.01. 22:00 84% 30 km
Sa, 28.01. 21:30 81% 30 km
Sa, 28.01. 21:00 81% 35 km
Sa, 28.01. 20:30 79% 35 km
Ortszeit Niederschlagsmenge Niederschlagsart
Sa, 28.01. 19:00 0.0 l/m2 in 12 Std. -
Sa, 28.01. 13:00 0.0 l/m2 in 6 Std. -
Sa, 28.01. 7:00 0.0 l/m2 in 12 Std. -
Sa, 28.01. 1:00 0.0 l/m2 in 6 Std. -
Fr, 27.01. 19:00 0.9 l/m2 in 12 Std. Regen
Fr, 27.01. 13:00 0.9 l/m2 in 6 Std. Schnee, Regen
Fr, 27.01. 7:00 0.1 l/m2 in 12 Std. Schnee, Sprühregen
Fr, 27.01. 1:00 0.0 l/m2 in 6 Std. -
Ortszeit Niederschlagsmenge Niederschlagsart
Sa, 28.01. 23:30 0.0 l/m2 in 30 Min -
Sa, 28.01. 23:20 keine Meldung -
Sa, 28.01. 23:10 keine Meldung -
Sa, 28.01. 23:00 0.0 l/m2 in 1 Std. -
Sa, 28.01. 22:50 keine Meldung -
Sa, 28.01. 22:40 keine Meldung -
Sa, 28.01. 22:30 0.0 l/m2 in 30 Min -
Sa, 28.01. 22:00 0.0 l/m2 in 1 Std. -
Sa, 28.01. 21:30 0.0 l/m2 in 30 Min -
Sa, 28.01. 21:00 0.0 l/m2 in 1 Std. -
Sa, 28.01. 20:30 0.0 l/m2 in 30 Min -
Ortszeit Stärke Spitze Richtung
km/h Bft. km/h Grad Sektor
Sa, 28.01. 19:00 7 2 14 260° W
Sa, 28.01. 13:00 7 2 14 320° NW
Sa, 28.01. 7:00 6 1 15 10° N
Sa, 28.01. 1:00 7 2 24 360° N
Fr, 27.01. 19:00 7 2 29 360° N
Fr, 27.01. 13:00 14 3 32 20° N
Fr, 27.01. 7:00 4 1 14 360° N
Fr, 27.01. 1:00 4 1 11 350° N
Ortszeit Stärke Spitze Richtung
km/h Bft. km/h Grad Sektor
Sa, 28.01. 23:30 7 2 15 230° SW
Sa, 28.01. 23:20 7 2 - 230° SW
Sa, 28.01. 23:10 7 2 - 230° SW
Sa, 28.01. 23:00 7 2 14 240° SW
Sa, 28.01. 22:50 7 2 - 240° SW
Sa, 28.01. 22:40 7 2 - 240° SW
Sa, 28.01. 22:30 7 2 14 250° W
Sa, 28.01. 22:00 7 2 14 240° SW
Sa, 28.01. 21:30 7 2 14 240° SW
Sa, 28.01. 21:00 7 2 11 240° SW
Sa, 28.01. 20:30 6 1 9 240° SW
Ortszeit Untergrenze Bedeckung Gattung
total tief tief mittel hoch
Sa, 28.01. 19:00 780 m 7/8 7/8 - - -
Sa, 28.01. 13:00 810 m 8/8 8/8 - - -
Sa, 28.01. 7:00 840 m 8/8 8/8 - - -
Sa, 28.01. 1:00 810 m 8/8 8/8 - - -
Fr, 27.01. 19:00 780 m 8/8 8/8 - - -
Fr, 27.01. 13:00 180 m 7/8 7/8 - - -
Fr, 27.01. 7:00 60 m 8/8 8/8 - - -
Fr, 27.01. 1:00 60 m 8/8 8/8 - - -
Ortszeit Bedeckungsgrad in Achtel und Wolkenuntergrenze
Sa, 28.01. 23:30 8(1020m)
Sa, 28.01. 23:20 8(1020m)
Sa, 28.01. 23:10 7
Sa, 28.01. 23:00 1(1050m) 3(2700m)
Sa, 28.01. 22:50 1(1050m) 3(2700m) 3(10500m)
Sa, 28.01. 22:40 3
Sa, 28.01. 22:30 3(9000m)
Sa, 28.01. 22:00 1(9000m)
Sa, 28.01. 21:30 1(2700m) 5(9000m)
Sa, 28.01. 21:00 5(2700m)
Sa, 28.01. 20:30 6(2700m)
Ortszeit Luftdruck NN (hPa) Tendenz (hPa in 3 Std.)
Sa, 28.01. 19:00 1030 + 0,5
Sa, 28.01. 13:00 1030 + 0,2
Sa, 28.01. 7:00 1029 + 0,5
Sa, 28.01. 1:00 1028 - 0,1
Fr, 27.01. 19:00 1027 + 1,2
Fr, 27.01. 13:00 1025 + 0,3
Fr, 27.01. 7:00 1024 + 1,0
Fr, 27.01. 1:00 1023 0,0
Ortszeit Luftdruck NN (hPa) Tendenz (hPa in 3 Std.)
Sa, 28.01. 23:30 1029 - 0,6
Sa, 28.01. 23:20 1029 keine Meldung
Sa, 28.01. 23:10 1030 keine Meldung
Sa, 28.01. 23:00 1030 - 0,5
Sa, 28.01. 22:50 1030 keine Meldung
Sa, 28.01. 22:40 1030 keine Meldung
Sa, 28.01. 22:30 1030 - 0,2
Sa, 28.01. 22:00 1030 - 0,2
Sa, 28.01. 21:30 1030 0,0
Sa, 28.01. 21:00 1030 + 0,3
Sa, 28.01. 20:30 1030 + 0,6
Ortszeit Schneehöhe (cm)
Sa, 28.01. 19:00 0
Sa, 28.01. 13:00 0
Sa, 28.01. 7:00 0
Sa, 28.01. 1:00 0
Fr, 27.01. 19:00 0
Fr, 27.01. 13:00 0
Fr, 27.01. 7:00 0
Fr, 27.01. 1:00 0
Ortszeit Schneehöhe (cm)
Sa, 28.01. 23:30 0
Sa, 28.01. 23:20 0
Sa, 28.01. 23:10 0
Sa, 28.01. 23:00 0
Sa, 28.01. 22:50 0
Sa, 28.01. 22:40 0
Sa, 28.01. 22:30 0
Sa, 28.01. 22:00 0
Sa, 28.01. 21:30 0
Sa, 28.01. 21:00 0
Sa, 28.01. 20:30 0
Link zu dieser Seite / Seite empfehlen

Das Wetter in ...